x

Buoy F01 - West Penobscot Bay (44033) Wave Buoy

7:04 - Sat 25th Feb 2017 All times are EST. -5 hours from GMT.

  • Sig Wave height 2.3ft
  • Peak Period 3s
  • Wind
    16mph, 18mph gusts
  • Sea Temp 37°f
  • Aire Temp 43°f
  • Sea Pressure 1000.7mb
  • Buoy F01 - West Penobscot Bay
  • Buoy F01 - West Penobscot Bay

More Historic Weather Station data

Upgrade to MSW Pro to gain access to the past 30 days of data for over 8000 Wavebouys and Weather Stations around the globe.

Join Pro

Comparision Forecast

View Surf forecast
   
sáb 02/25 7:04 2.5ft 3s 16 18 mph 1000.7mb 37f 43f
6:04 2.5ft 4s 13 18 mph 1002.4mb 37f 43f
5:04 2.5ft 5s 11 13 mph 1004.1mb 37f 42f
4:04 2ft 5s 13
mph
1005.6mb 38f 43f
3:04 2.5ft 5s 9 11 mph 1006.5mb 39f 44f
2:04 2ft 5s 4 7 mph 1007.1mb 39f 46f
1:04 2.5ft 5s 4 7 mph 1007.8mb 38f 46f
12:04 2.5ft 5s 2
mph
1008.9mb 38f 44f
11:04 2ft 5s  -  2 mph 1009.9mb 38f 46f
10:04 1.6ft 5s 4
mph
1010.6mb 37f 42f
9:04 2.5ft 5s 4 7 mph 1010.9mb 37f 43f
8:04 2.5ft 5s 7
mph
1011.2mb 37f 43f
7:04 2.5ft 5s 4 7 mph 1011.1mb 37f 41f
5:04 2.5ft 5s 2 4 mph 1011.7mb 37f 41f
4:04 2.5ft 5s 7
mph
1011.5mb 37f 40f
3:04 2.5ft 6s 7
mph
1011.1mb 37f 41f
2:04 3ft 5s 4 7 mph 1011.1mb 37f 41f
12:04 3ft 5s 11
mph
1010.9mb 37f 43f
vie 02/24 11:04 2.5ft 5s 9 11 mph 1010.3mb 37f 42f
10:04 2.5ft 5s 9 11 mph 1010.4mb 37f 43f
9:04 1.6ft 5s 9
mph
1010.6mb 37f 43f
8:04 2ft 5s 4
mph
1011.1mb 37f 41f
7:04 2.5ft 5s 7
mph
1011.1mb 37f 40f
6:04 2.5ft 6s 7
mph
1011.3mb 37f 40f
5:04 2ft 5s 2 4 mph 1011.5mb 37f 41f
4:04 2.5ft 6s 2 4 mph 1011.3mb 38f 41f
3:04 2.5ft 6s 2 4 mph 1011.8mb 38f 41f
2:04 2.5ft 6s 9 11 mph 1012mb 38f 40f
1:04 2.5ft 6s  -  2 mph 1012.2mb 37f 42f
12:04 2.5ft 6s 4
mph
1012.8mb 37f 40f
11:04 2.5ft 6s 4
mph
1013.6mb 37f 40f
10:04 2.5ft 6s 2 4 mph 1014mb 37f 40f
9:04 2.5ft 6s 4 7 mph 1013mb 37f 40f
8:04 2.5ft 6s 4
mph
1012.8mb 37f 40f
7:04 3ft 6s 4
mph
1012.8mb 37f 40f
6:04 2.5ft 6s 7 9 mph 1012.2mb 37f 40f
5:04 2.5ft 6s 7 9 mph 1011.3mb 37f 39f
4:04 2.5ft 6s 4 7 mph 1010.6mb 37f 40f
3:04 3ft 6s 4
mph
1009.9mb 37f 42f
2:04 3ft 6s 4 7 mph 1009.6mb 37f 41f
1:04 3.5ft 6s 4 7 mph 1009mb 37f 42f
12:04 3ft 5s 13 16 mph 1008.3mb 37f 43f
jue 02/23 11:04 3.5ft 5s 18 20 mph 1007.5mb 37f 43f
10:04 3.5ft 5s 18 22 mph 1006.8mb 37f 43f
9:04 3.5ft 5s 16 20 mph 1006.5mb 37f 43f
8:04 2.5ft 5s 11 16 mph 1006.6mb 37f 42f
7:04 3ft 5s 7 9 mph 1006.3mb 37f 40f
6:04 2ft 4s 7 9 mph 1006.5mb 37f 40f
5:04 2ft 4s 4 7 mph 1006.2mb 37f 39f
4:04 2.5ft 4s 7 9 mph 1006.4mb 37f 40f
3:04 2ft 4s 7 9 mph 1007.3mb 37f 38f
2:04 2.5ft 11s 11 13 mph 1007.6mb 37f 39f
1:04 1.6ft 4s 9
mph
1008.3mb 37f 39f
12:04 1.3ft 3s 9 11 mph 1009.3mb 37f 38f
11:04 1ft 4s 9 11 mph 1009.9mb 37f 39f
10:04 1.6ft 11s 7 9 mph 1010.2mb 37f 40f
9:04 1.6ft 11s 4
mph
1010.6mb 37f 40f
8:04 1.6ft 11s 2
mph
1011.3mb 37f 37f
7:04 1.6ft 11s 4
mph
1011.3mb 37f 36f
6:04 1.3ft 11s 2
mph
1010.9mb 36f 36f
5:04 1.3ft 8s 4
mph
1011.1mb 37f 36f
mié 02/22 5:04 2.5ft 5s 9 11 mph 1015.9mb 36f 38f
4:04 2.5ft 5s 11 13 mph 1016.3mb 36f 38f
3:04 2.5ft 5s 11
mph
1016.5mb 36f 38f
2:04 2.5ft 4s 11
mph
1017.2mb 36f 38f